sensor_id;sensor_type;location;lat;lon;timestamp;P1;durP1;ratioP1;P2;durP2;ratioP2
18194;SDS011;9223;50.988;3.162;2024-02-21T00:01:14;4.53;;;1.95;;
18194;SDS011;9223;50.988;3.162;2024-02-21T00:07:20;2.95;;;2.10;;
18194;SDS011;9223;50.988;3.162;2024-02-21T00:13:24;2.55;;;1.77;;
18194;SDS011;9223;50.988;3.162;2024-02-21T00:19:29;4.22;;;1.92;;
18194;SDS011;9223;50.988;3.162;2024-02-21T00:25:35;2.00;;;1.80;;
18194;SDS011;9223;50.988;3.162;2024-02-21T00:31:40;4.22;;;2.30;;
18194;SDS011;9223;50.988;3.162;2024-02-21T00:37:45;2.60;;;1.92;;
18194;SDS011;9223;50.988;3.162;2024-02-21T00:43:51;3.20;;;1.95;;
18194;SDS011;9223;50.988;3.162;2024-02-21T00:49:55;3.72;;;2.55;;
18194;SDS011;9223;50.988;3.162;2024-02-21T00:56:00;2.70;;;2.33;;
18194;SDS011;9223;50.988;3.162;2024-02-21T01:02:06;2.75;;;2.08;;
18194;SDS011;9223;50.988;3.162;2024-02-21T01:08:10;3.30;;;2.38;;
18194;SDS011;9223;50.988;3.162;2024-02-21T01:14:14;5.18;;;3.08;;
18194;SDS011;9223;50.988;3.162;2024-02-21T01:20:19;3.90;;;2.67;;
18194;SDS011;9223;50.988;3.162;2024-02-21T01:26:23;4.18;;;3.10;;
18194;SDS011;9223;50.988;3.162;2024-02-21T01:32:28;4.35;;;2.40;;
18194;SDS011;9223;50.988;3.162;2024-02-21T01:38:34;3.55;;;2.78;;
18194;SDS011;9223;50.988;3.162;2024-02-21T01:44:39;4.40;;;3.08;;
18194;SDS011;9223;50.988;3.162;2024-02-21T01:50:43;5.63;;;3.38;;
18194;SDS011;9223;50.988;3.162;2024-02-21T01:56:50;5.15;;;3.42;;
18194;SDS011;9223;50.988;3.162;2024-02-21T02:02:55;4.90;;;3.38;;
18194;SDS011;9223;50.988;3.162;2024-02-21T02:09:00;5.68;;;4.15;;
18194;SDS011;9223;50.988;3.162;2024-02-21T02:15:06;6.32;;;3.60;;
18194;SDS011;9223;50.988;3.162;2024-02-21T02:21:11;4.95;;;4.03;;
18194;SDS011;9223;50.988;3.162;2024-02-21T02:27:19;6.82;;;4.30;;
18194;SDS011;9223;50.988;3.162;2024-02-21T02:33:24;9.00;;;4.72;;
18194;SDS011;9223;50.988;3.162;2024-02-21T02:39:28;7.53;;;4.38;;
18194;SDS011;9223;50.988;3.162;2024-02-21T02:45:34;5.30;;;3.05;;
18194;SDS011;9223;50.988;3.162;2024-02-21T02:51:41;10.10;;;4.60;;
18194;SDS011;9223;50.988;3.162;2024-02-21T02:57:45;9.20;;;4.47;;
18194;SDS011;9223;50.988;3.162;2024-02-21T03:03:51;8.55;;;3.70;;
18194;SDS011;9223;50.988;3.162;2024-02-21T03:09:55;6.15;;;3.95;;
18194;SDS011;9223;50.988;3.162;2024-02-21T03:15:58;10.13;;;4.95;;
18194;SDS011;9223;50.988;3.162;2024-02-21T03:22:03;11.57;;;5.95;;
18194;SDS011;9223;50.988;3.162;2024-02-21T03:28:07;2.63;;;1.80;;
18194;SDS011;9223;50.988;3.162;2024-02-21T03:34:11;6.88;;;3.75;;
18194;SDS011;9223;50.988;3.162;2024-02-21T03:40:16;8.43;;;4.03;;
18194;SDS011;9223;50.988;3.162;2024-02-21T03:46:19;8.77;;;4.07;;
18194;SDS011;9223;50.988;3.162;2024-02-21T03:52:23;7.55;;;3.65;;
18194;SDS011;9223;50.988;3.162;2024-02-21T03:58:29;4.82;;;3.00;;
18194;SDS011;9223;50.988;3.162;2024-02-21T04:04:32;9.30;;;4.65;;
18194;SDS011;9223;50.988;3.162;2024-02-21T04:10:36;7.75;;;3.45;;
18194;SDS011;9223;50.988;3.162;2024-02-21T04:16:41;9.32;;;4.93;;
18194;SDS011;9223;50.988;3.162;2024-02-21T04:22:44;3.33;;;2.47;;
18194;SDS011;9223;50.988;3.162;2024-02-21T04:28:48;4.65;;;2.95;;
18194;SDS011;9223;50.988;3.162;2024-02-21T04:34:53;7.78;;;3.95;;
18194;SDS011;9223;50.988;3.162;2024-02-21T04:40:57;9.55;;;4.53;;
18194;SDS011;9223;50.988;3.162;2024-02-21T04:47:00;7.90;;;3.83;;
18194;SDS011;9223;50.988;3.162;2024-02-21T04:53:06;3.60;;;1.88;;
18194;SDS011;9223;50.988;3.162;2024-02-21T04:59:10;4.10;;;2.53;;
18194;SDS011;9223;50.988;3.162;2024-02-21T05:05:13;9.88;;;4.35;;
18194;SDS011;9223;50.988;3.162;2024-02-21T05:11:19;10.07;;;5.43;;
18194;SDS011;9223;50.988;3.162;2024-02-21T05:17:23;2.45;;;1.83;;
18194;SDS011;9223;50.988;3.162;2024-02-21T05:23:27;3.05;;;2.15;;
18194;SDS011;9223;50.988;3.162;2024-02-21T05:29:32;3.60;;;2.70;;
18194;SDS011;9223;50.988;3.162;2024-02-21T05:35:36;6.40;;;3.83;;
18194;SDS011;9223;50.988;3.162;2024-02-21T05:41:40;4.55;;;2.75;;
18194;SDS011;9223;50.988;3.162;2024-02-21T05:47:45;7.43;;;4.00;;
18194;SDS011;9223;50.988;3.162;2024-02-21T05:53:48;7.65;;;4.30;;
18194;SDS011;9223;50.988;3.162;2024-02-21T05:59:52;7.60;;;4.55;;
18194;SDS011;9223;50.988;3.162;2024-02-21T06:05:57;3.20;;;1.95;;
18194;SDS011;9223;50.988;3.162;2024-02-21T06:12:01;3.72;;;2.22;;
18194;SDS011;9223;50.988;3.162;2024-02-21T06:18:05;7.65;;;2.75;;
18194;SDS011;9223;50.988;3.162;2024-02-21T06:24:10;5.63;;;3.40;;
18194;SDS011;9223;50.988;3.162;2024-02-21T06:30:14;10.00;;;3.50;;
18194;SDS011;9223;50.988;3.162;2024-02-21T06:36:17;7.60;;;4.35;;
18194;SDS011;9223;50.988;3.162;2024-02-21T06:42:24;7.32;;;3.78;;
18194;SDS011;9223;50.988;3.162;2024-02-21T06:48:27;6.93;;;3.90;;
18194;SDS011;9223;50.988;3.162;2024-02-21T06:54:31;6.28;;;3.58;;
18194;SDS011;9223;50.988;3.162;2024-02-21T07:00:36;9.10;;;4.03;;
18194;SDS011;9223;50.988;3.162;2024-02-21T07:06:39;9.27;;;4.57;;
18194;SDS011;9223;50.988;3.162;2024-02-21T07:12:43;7.13;;;4.03;;
18194;SDS011;9223;50.988;3.162;2024-02-21T07:18:48;6.35;;;3.40;;
18194;SDS011;9223;50.988;3.162;2024-02-21T07:24:51;6.85;;;4.13;;
18194;SDS011;9223;50.988;3.162;2024-02-21T07:30:55;5.43;;;3.25;;
18194;SDS011;9223;50.988;3.162;2024-02-21T07:37:00;5.03;;;3.72;;
18194;SDS011;9223;50.988;3.162;2024-02-21T07:43:03;4.75;;;3.25;;
18194;SDS011;9223;50.988;3.162;2024-02-21T07:49:07;6.30;;;3.80;;
18194;SDS011;9223;50.988;3.162;2024-02-21T07:55:12;4.80;;;3.28;;
18194;SDS011;9223;50.988;3.162;2024-02-21T08:01:18;5.70;;;4.00;;
18194;SDS011;9223;50.988;3.162;2024-02-21T08:07:22;7.00;;;4.50;;
18194;SDS011;9223;50.988;3.162;2024-02-21T08:13:27;5.50;;;3.42;;
18194;SDS011;9223;50.988;3.162;2024-02-21T08:19:31;5.18;;;3.95;;
18194;SDS011;9223;50.988;3.162;2024-02-21T08:25:35;4.70;;;3.58;;
18194;SDS011;9223;50.988;3.162;2024-02-21T08:31:39;5.45;;;3.50;;
18194;SDS011;9223;50.988;3.162;2024-02-21T08:37:43;7.00;;;3.60;;
18194;SDS011;9223;50.988;3.162;2024-02-21T08:43:49;7.88;;;5.25;;
18194;SDS011;9223;50.988;3.162;2024-02-21T08:49:55;8.68;;;4.80;;
18194;SDS011;9223;50.988;3.162;2024-02-21T08:55:58;6.20;;;4.20;;
18194;SDS011;9223;50.988;3.162;2024-02-21T09:02:02;6.15;;;4.68;;
18194;SDS011;9223;50.988;3.162;2024-02-21T09:08:07;7.40;;;4.18;;
18194;SDS011;9223;50.988;3.162;2024-02-21T09:14:11;5.47;;;4.10;;
18194;SDS011;9223;50.988;3.162;2024-02-21T09:20:14;12.88;;;4.97;;
18194;SDS011;9223;50.988;3.162;2024-02-21T09:26:20;7.47;;;4.47;;
18194;SDS011;9223;50.988;3.162;2024-02-21T09:32:24;6.82;;;4.90;;
18194;SDS011;9223;50.988;3.162;2024-02-21T09:38:28;6.05;;;4.72;;
18194;SDS011;9223;50.988;3.162;2024-02-21T09:44:36;7.07;;;4.13;;
18194;SDS011;9223;50.988;3.162;2024-02-21T09:50:40;5.45;;;4.35;;
18194;SDS011;9223;50.988;3.162;2024-02-21T09:56:44;9.00;;;4.63;;
18194;SDS011;9223;50.988;3.162;2024-02-21T10:02:50;5.85;;;4.20;;
18194;SDS011;9223;50.988;3.162;2024-02-21T10:08:54;6.13;;;3.83;;
18194;SDS011;9223;50.988;3.162;2024-02-21T10:15:01;3.20;;;2.50;;
18194;SDS011;9223;50.988;3.162;2024-02-21T10:21:06;3.63;;;2.47;;
18194;SDS011;9223;50.988;3.162;2024-02-21T10:27:10;5.53;;;4.00;;
18194;SDS011;9223;50.988;3.162;2024-02-21T10:33:15;5.40;;;3.00;;
18194;SDS011;9223;50.988;3.162;2024-02-21T10:39:23;5.03;;;3.43;;
18194;SDS011;9223;50.988;3.162;2024-02-21T10:45:28;3.92;;;2.35;;
18194;SDS011;9223;50.988;3.162;2024-02-21T10:51:33;2.72;;;1.70;;
18194;SDS011;9223;50.988;3.162;2024-02-21T10:57:38;3.10;;;1.75;;
18194;SDS011;9223;50.988;3.162;2024-02-21T11:03:42;3.20;;;2.00;;
18194;SDS011;9223;50.988;3.162;2024-02-21T11:09:50;3.40;;;2.22;;
18194;SDS011;9223;50.988;3.162;2024-02-21T11:16:06;3.55;;;1.98;;
18194;SDS011;9223;50.988;3.162;2024-02-21T11:22:14;5.03;;;3.20;;
18194;SDS011;9223;50.988;3.162;2024-02-21T11:28:25;3.25;;;1.67;;
18194;SDS011;9223;50.988;3.162;2024-02-21T11:34:30;1.63;;;1.48;;
18194;SDS011;9223;50.988;3.162;2024-02-21T11:40:37;1.30;;;1.20;;
18194;SDS011;9223;50.988;3.162;2024-02-21T11:46:41;3.63;;;2.60;;
18194;SDS011;9223;50.988;3.162;2024-02-21T11:52:47;3.22;;;1.75;;
18194;SDS011;9223;50.988;3.162;2024-02-21T11:58:51;3.15;;;2.30;;
18194;SDS011;9223;50.988;3.162;2024-02-21T12:04:55;3.85;;;2.70;;
18194;SDS011;9223;50.988;3.162;2024-02-21T12:11:00;3.38;;;1.90;;
18194;SDS011;9223;50.988;3.162;2024-02-21T12:17:04;2.97;;;1.48;;
18194;SDS011;9223;50.988;3.162;2024-02-21T12:23:08;3.28;;;1.90;;
18194;SDS011;9223;50.988;3.162;2024-02-21T12:29:14;2.63;;;2.30;;
18194;SDS011;9223;50.988;3.162;2024-02-21T12:35:17;3.85;;;1.70;;
18194;SDS011;9223;50.988;3.162;2024-02-21T12:41:21;4.80;;;2.42;;
18194;SDS011;9223;50.988;3.162;2024-02-21T12:47:28;2.10;;;1.70;;
18194;SDS011;9223;50.988;3.162;2024-02-21T12:53:32;4.15;;;1.65;;
18194;SDS011;9223;50.988;3.162;2024-02-21T12:59:35;4.65;;;1.23;;
18194;SDS011;9223;50.988;3.162;2024-02-21T13:05:40;4.40;;;2.57;;
18194;SDS011;9223;50.988;3.162;2024-02-21T13:11:44;4.18;;;1.35;;
18194;SDS011;9223;50.988;3.162;2024-02-21T13:17:47;2.92;;;2.58;;
18194;SDS011;9223;50.988;3.162;2024-02-21T13:23:53;3.58;;;2.47;;
18194;SDS011;9223;50.988;3.162;2024-02-21T13:29:57;2.38;;;1.45;;
18194;SDS011;9223;50.988;3.162;2024-02-21T13:36:01;3.50;;;2.78;;
18194;SDS011;9223;50.988;3.162;2024-02-21T13:42:07;2.58;;;1.52;;
18194;SDS011;9223;50.988;3.162;2024-02-21T13:48:10;7.40;;;3.92;;
18194;SDS011;9223;50.988;3.162;2024-02-21T13:54:16;2.17;;;1.30;;
18194;SDS011;9223;50.988;3.162;2024-02-21T14:00:22;2.80;;;2.00;;
18194;SDS011;9223;50.988;3.162;2024-02-21T14:06:26;3.78;;;2.50;;
18194;SDS011;9223;50.988;3.162;2024-02-21T14:12:30;4.88;;;2.70;;
18194;SDS011;9223;50.988;3.162;2024-02-21T14:18:36;2.75;;;1.40;;
18194;SDS011;9223;50.988;3.162;2024-02-21T14:24:40;2.78;;;1.40;;
18194;SDS011;9223;50.988;3.162;2024-02-21T14:30:43;2.17;;;1.10;;
18194;SDS011;9223;50.988;3.162;2024-02-21T14:36:50;3.15;;;1.50;;
18194;SDS011;9223;50.988;3.162;2024-02-21T14:42:53;3.45;;;1.75;;
18194;SDS011;9223;50.988;3.162;2024-02-21T14:48:57;5.95;;;2.90;;
18194;SDS011;9223;50.988;3.162;2024-02-21T14:55:02;4.28;;;2.00;;
18194;SDS011;9223;50.988;3.162;2024-02-21T15:01:07;2.67;;;1.27;;
18194;SDS011;9223;50.988;3.162;2024-02-21T15:07:10;2.42;;;1.90;;
18194;SDS011;9223;50.988;3.162;2024-02-21T15:13:15;3.75;;;2.22;;
18194;SDS011;9223;50.988;3.162;2024-02-21T15:19:19;3.08;;;1.48;;
18194;SDS011;9223;50.988;3.162;2024-02-21T15:25:23;2.10;;;1.10;;
18194;SDS011;9223;50.988;3.162;2024-02-21T15:31:28;4.70;;;1.60;;
18194;SDS011;9223;50.988;3.162;2024-02-21T15:37:32;1.48;;;1.27;;
18194;SDS011;9223;50.988;3.162;2024-02-21T15:43:35;2.30;;;1.90;;
18194;SDS011;9223;50.988;3.162;2024-02-21T15:49:41;2.15;;;1.05;;
18194;SDS011;9223;50.988;3.162;2024-02-21T15:55:45;2.40;;;1.30;;
18194;SDS011;9223;50.988;3.162;2024-02-21T16:01:48;4.65;;;1.80;;
18194;SDS011;9223;50.988;3.162;2024-02-21T16:07:53;6.97;;;2.05;;
18194;SDS011;9223;50.988;3.162;2024-02-21T16:13:57;2.55;;;1.83;;
18194;SDS011;9223;50.988;3.162;2024-02-21T16:20:04;1.92;;;1.13;;
18194;SDS011;9223;50.988;3.162;2024-02-21T16:26:12;2.42;;;1.23;;
18194;SDS011;9223;50.988;3.162;2024-02-21T16:32:16;2.55;;;2.25;;
18194;SDS011;9223;50.988;3.162;2024-02-21T16:38:19;2.90;;;1.83;;
18194;SDS011;9223;50.988;3.162;2024-02-21T16:44:24;2.65;;;1.63;;
18194;SDS011;9223;50.988;3.162;2024-02-21T16:50:28;2.47;;;1.10;;
18194;SDS011;9223;50.988;3.162;2024-02-21T16:56:37;1.45;;;1.20;;
18194;SDS011;9223;50.988;3.162;2024-02-21T17:02:42;3.15;;;1.13;;
18194;SDS011;9223;50.988;3.162;2024-02-21T17:08:59;1.30;;;1.08;;
18194;SDS011;9223;50.988;3.162;2024-02-21T17:15:02;1.30;;;1.05;;
18194;SDS011;9223;50.988;3.162;2024-02-21T17:21:08;2.63;;;2.35;;
18194;SDS011;9223;50.988;3.162;2024-02-21T17:27:13;3.10;;;1.92;;
18194;SDS011;9223;50.988;3.162;2024-02-21T17:33:17;3.78;;;1.60;;
18194;SDS011;9223;50.988;3.162;2024-02-21T17:39:22;2.88;;;2.30;;
18194;SDS011;9223;50.988;3.162;2024-02-21T17:45:26;3.45;;;2.53;;
18194;SDS011;9223;50.988;3.162;2024-02-21T17:51:29;2.80;;;2.03;;
18194;SDS011;9223;50.988;3.162;2024-02-21T17:57:34;3.38;;;2.20;;
18194;SDS011;9223;50.988;3.162;2024-02-21T18:03:38;3.65;;;2.80;;
18194;SDS011;9223;50.988;3.162;2024-02-21T18:09:41;5.25;;;3.95;;
18194;SDS011;9223;50.988;3.162;2024-02-21T18:15:46;3.88;;;2.85;;
18194;SDS011;9223;50.988;3.162;2024-02-21T18:21:50;3.08;;;2.20;;
18194;SDS011;9223;50.988;3.162;2024-02-21T18:27:54;3.17;;;2.83;;
18194;SDS011;9223;50.988;3.162;2024-02-21T18:33:59;2.55;;;2.35;;
18194;SDS011;9223;50.988;3.162;2024-02-21T18:40:05;2.70;;;2.50;;
18194;SDS011;9223;50.988;3.162;2024-02-21T18:46:13;2.80;;;2.47;;
18194;SDS011;9223;50.988;3.162;2024-02-21T18:52:18;4.00;;;1.38;;
18194;SDS011;9223;50.988;3.162;2024-02-21T18:58:22;3.45;;;1.63;;
18194;SDS011;9223;50.988;3.162;2024-02-21T19:04:25;2.55;;;2.17;;
18194;SDS011;9223;50.988;3.162;2024-02-21T19:10:30;3.15;;;1.67;;
18194;SDS011;9223;50.988;3.162;2024-02-21T19:16:34;2.85;;;1.50;;
18194;SDS011;9223;50.988;3.162;2024-02-21T19:22:38;4.40;;;1.55;;
18194;SDS011;9223;50.988;3.162;2024-02-21T19:28:45;2.33;;;1.45;;
18194;SDS011;9223;50.988;3.162;2024-02-21T19:34:50;3.10;;;1.75;;
18194;SDS011;9223;50.988;3.162;2024-02-21T19:40:54;3.80;;;1.70;;
18194;SDS011;9223;50.988;3.162;2024-02-21T19:47:00;3.38;;;2.30;;
18194;SDS011;9223;50.988;3.162;2024-02-21T19:53:05;2.58;;;1.90;;
18194;SDS011;9223;50.988;3.162;2024-02-21T19:59:09;1.70;;;1.60;;
18194;SDS011;9223;50.988;3.162;2024-02-21T20:05:15;1.90;;;1.50;;
18194;SDS011;9223;50.988;3.162;2024-02-21T20:11:19;2.15;;;1.95;;
18194;SDS011;9223;50.988;3.162;2024-02-21T20:17:23;2.10;;;1.70;;
18194;SDS011;9223;50.988;3.162;2024-02-21T20:23:28;3.75;;;1.80;;
18194;SDS011;9223;50.988;3.162;2024-02-21T20:29:34;1.98;;;1.80;;
18194;SDS011;9223;50.988;3.162;2024-02-21T20:35:38;2.13;;;1.70;;
18194;SDS011;9223;50.988;3.162;2024-02-21T20:41:43;2.22;;;2.03;;
18194;SDS011;9223;50.988;3.162;2024-02-21T20:47:46;2.58;;;2.00;;
18194;SDS011;9223;50.988;3.162;2024-02-21T20:53:50;1.83;;;1.67;;
18194;SDS011;9223;50.988;3.162;2024-02-21T20:59:55;2.50;;;1.80;;
18194;SDS011;9223;50.988;3.162;2024-02-21T21:05:59;1.92;;;1.73;;
18194;SDS011;9223;50.988;3.162;2024-02-21T21:12:03;2.00;;;1.40;;
18194;SDS011;9223;50.988;3.162;2024-02-21T21:18:09;1.70;;;1.50;;
18194;SDS011;9223;50.988;3.162;2024-02-21T21:24:12;1.80;;;1.42;;
18194;SDS011;9223;50.988;3.162;2024-02-21T21:30:16;1.50;;;1.40;;
18194;SDS011;9223;50.988;3.162;2024-02-21T21:36:22;1.30;;;1.20;;
18194;SDS011;9223;50.988;3.162;2024-02-21T21:42:26;2.00;;;1.80;;
18194;SDS011;9223;50.988;3.162;2024-02-21T21:48:29;2.58;;;1.48;;
18194;SDS011;9223;50.988;3.162;2024-02-21T21:54:34;1.70;;;1.60;;
18194;SDS011;9223;50.988;3.162;2024-02-21T22:00:38;1.63;;;1.50;;
18194;SDS011;9223;50.988;3.162;2024-02-21T22:06:42;1.33;;;1.23;;
18194;SDS011;9223;50.988;3.162;2024-02-21T22:12:48;1.92;;;1.00;;
18194;SDS011;9223;50.988;3.162;2024-02-21T22:18:52;1.70;;;1.60;;
18194;SDS011;9223;50.988;3.162;2024-02-21T22:24:56;1.73;;;1.10;;
18194;SDS011;9223;50.988;3.162;2024-02-21T22:31:01;1.50;;;1.40;;
18194;SDS011;9223;50.988;3.162;2024-02-21T22:37:04;1.95;;;1.60;;
18194;SDS011;9223;50.988;3.162;2024-02-21T22:43:08;2.05;;;1.40;;
18194;SDS011;9223;50.988;3.162;2024-02-21T22:49:13;2.42;;;1.40;;
18194;SDS011;9223;50.988;3.162;2024-02-21T22:55:16;1.60;;;1.50;;
18194;SDS011;9223;50.988;3.162;2024-02-21T23:01:20;1.75;;;1.30;;
18194;SDS011;9223;50.988;3.162;2024-02-21T23:07:24;1.38;;;1.17;;
18194;SDS011;9223;50.988;3.162;2024-02-21T23:13:28;2.22;;;1.20;;
18194;SDS011;9223;50.988;3.162;2024-02-21T23:19:32;3.22;;;1.20;;
18194;SDS011;9223;50.988;3.162;2024-02-21T23:25:37;3.28;;;1.20;;
18194;SDS011;9223;50.988;3.162;2024-02-21T23:31:41;5.00;;;1.48;;
18194;SDS011;9223;50.988;3.162;2024-02-21T23:37:45;3.70;;;1.67;;
18194;SDS011;9223;50.988;3.162;2024-02-21T23:43:50;9.13;;;1.90;;
18194;SDS011;9223;50.988;3.162;2024-02-21T23:49:56;6.85;;;2.20;;
18194;SDS011;9223;50.988;3.162;2024-02-21T23:55:59;3.58;;;1.48;;
